sensor_id;sensor_type;location;lat;lon;timestamp;temperature;humidity
18163;DHT22;9206;50.994;4.538;2023-09-08T00:00:22;18.80;99.90
18163;DHT22;9206;50.994;4.538;2023-09-08T00:03:10;18.70;99.90
18163;DHT22;9206;50.994;4.538;2023-09-08T00:06:01;18.70;99.90
18163;DHT22;9206;50.994;4.538;2023-09-08T00:08:53;18.70;99.90
18163;DHT22;9206;50.994;4.538;2023-09-08T00:11:46;18.70;99.90
18163;DHT22;9206;50.994;4.538;2023-09-08T00:14:41;18.70;99.90
18163;DHT22;9206;50.994;4.538;2023-09-08T00:17:35;18.70;99.90
18163;DHT22;9206;50.994;4.538;2023-09-08T00:20:23;18.60;99.90
18163;DHT22;9206;50.994;4.538;2023-09-08T00:23:18;18.60;99.90
18163;DHT22;9206;50.994;4.538;2023-09-08T00:26:08;18.60;99.90
18163;DHT22;9206;50.994;4.538;2023-09-08T00:28:55;18.50;99.90
18163;DHT22;9206;50.994;4.538;2023-09-08T00:31:49;18.50;99.90
18163;DHT22;9206;50.994;4.538;2023-09-08T00:34:42;18.40;99.90
18163;DHT22;9206;50.994;4.538;2023-09-08T00:37:31;18.40;99.90
18163;DHT22;9206;50.994;4.538;2023-09-08T00:40:23;18.40;99.90
18163;DHT22;9206;50.994;4.538;2023-09-08T00:43:13;18.30;99.90
18163;DHT22;9206;50.994;4.538;2023-09-08T00:46:01;18.30;99.90
18163;DHT22;9206;50.994;4.538;2023-09-08T00:48:55;18.30;99.90
18163;DHT22;9206;50.994;4.538;2023-09-08T00:51:48;18.30;99.90
18163;DHT22;9206;50.994;4.538;2023-09-08T00:54:39;18.30;99.90
18163;DHT22;9206;50.994;4.538;2023-09-08T00:57:33;18.20;99.90
18163;DHT22;9206;50.994;4.538;2023-09-08T01:00:28;18.20;99.90
18163;DHT22;9206;50.994;4.538;2023-09-08T01:03:15;18.20;99.90
18163;DHT22;9206;50.994;4.538;2023-09-08T01:06:09;18.10;99.90
18163;DHT22;9206;50.994;4.538;2023-09-08T01:09:00;18.10;99.90
18163;DHT22;9206;50.994;4.538;2023-09-08T01:11:49;18.10;99.90
18163;DHT22;9206;50.994;4.538;2023-09-08T01:14:44;18.10;99.90
18163;DHT22;9206;50.994;4.538;2023-09-08T01:17:37;18.10;99.90
18163;DHT22;9206;50.994;4.538;2023-09-08T01:20:27;18.10;99.90
18163;DHT22;9206;50.994;4.538;2023-09-08T01:23:22;18.10;99.90
18163;DHT22;9206;50.994;4.538;2023-09-08T01:26:17;18.00;99.90
18163;DHT22;9206;50.994;4.538;2023-09-08T01:29:11;17.90;99.90
18163;DHT22;9206;50.994;4.538;2023-09-08T01:32:03;17.90;99.90
18163;DHT22;9206;50.994;4.538;2023-09-08T01:34:54;17.90;99.90
18163;DHT22;9206;50.994;4.538;2023-09-08T01:37:46;17.80;99.90
18163;DHT22;9206;50.994;4.538;2023-09-08T01:40:36;17.80;99.90
18163;DHT22;9206;50.994;4.538;2023-09-08T01:43:31;17.80;99.90
18163;DHT22;9206;50.994;4.538;2023-09-08T01:46:19;17.80;99.90
18163;DHT22;9206;50.994;4.538;2023-09-08T01:49:09;17.70;99.90
18163;DHT22;9206;50.994;4.538;2023-09-08T01:52:03;17.70;99.90
18163;DHT22;9206;50.994;4.538;2023-09-08T01:54:54;17.70;99.90
18163;DHT22;9206;50.994;4.538;2023-09-08T01:57:42;17.70;99.90
18163;DHT22;9206;50.994;4.538;2023-09-08T02:00:33;17.70;99.90
18163;DHT22;9206;50.994;4.538;2023-09-08T02:03:26;17.60;99.90
18163;DHT22;9206;50.994;4.538;2023-09-08T02:06:14;17.70;99.90
18163;DHT22;9206;50.994;4.538;2023-09-08T02:09:01;17.60;99.90
18163;DHT22;9206;50.994;4.538;2023-09-08T02:11:49;17.60;99.90
18163;DHT22;9206;50.994;4.538;2023-09-08T02:14:39;17.60;99.90
18163;DHT22;9206;50.994;4.538;2023-09-08T02:17:30;17.60;99.90
18163;DHT22;9206;50.994;4.538;2023-09-08T02:20:18;17.50;99.90
18163;DHT22;9206;50.994;4.538;2023-09-08T02:23:07;17.50;99.90
18163;DHT22;9206;50.994;4.538;2023-09-08T02:25:57;17.50;99.90
18163;DHT22;9206;50.994;4.538;2023-09-08T02:28:47;17.40;99.90
18163;DHT22;9206;50.994;4.538;2023-09-08T02:31:38;17.40;99.90
18163;DHT22;9206;50.994;4.538;2023-09-08T02:34:28;17.40;99.90
18163;DHT22;9206;50.994;4.538;2023-09-08T02:37:16;17.30;99.90
18163;DHT22;9206;50.994;4.538;2023-09-08T02:40:11;17.40;99.90
18163;DHT22;9206;50.994;4.538;2023-09-08T02:43:00;17.30;99.90
18163;DHT22;9206;50.994;4.538;2023-09-08T02:45:47;17.30;99.90
18163;DHT22;9206;50.994;4.538;2023-09-08T02:48:41;17.30;99.90
18163;DHT22;9206;50.994;4.538;2023-09-08T02:51:31;17.30;99.90
18163;DHT22;9206;50.994;4.538;2023-09-08T02:54:24;17.20;99.90
18163;DHT22;9206;50.994;4.538;2023-09-08T02:57:15;17.10;99.90
18163;DHT22;9206;50.994;4.538;2023-09-08T03:00:06;17.10;99.90
18163;DHT22;9206;50.994;4.538;2023-09-08T03:03:04;17.00;99.90
18163;DHT22;9206;50.994;4.538;2023-09-08T03:05:53;17.00;99.90
18163;DHT22;9206;50.994;4.538;2023-09-08T03:08:44;17.00;99.90
18163;DHT22;9206;50.994;4.538;2023-09-08T03:11:31;17.00;99.90
18163;DHT22;9206;50.994;4.538;2023-09-08T03:14:20;16.90;99.90
18163;DHT22;9206;50.994;4.538;2023-09-08T03:17:09;16.90;99.90
18163;DHT22;9206;50.994;4.538;2023-09-08T03:19:57;16.90;99.90
18163;DHT22;9206;50.994;4.538;2023-09-08T03:22:45;16.80;99.90
18163;DHT22;9206;50.994;4.538;2023-09-08T03:25:35;16.80;99.90
18163;DHT22;9206;50.994;4.538;2023-09-08T03:28:26;16.80;99.90
18163;DHT22;9206;50.994;4.538;2023-09-08T03:31:14;16.80;99.90
18163;DHT22;9206;50.994;4.538;2023-09-08T03:34:04;16.80;99.90
18163;DHT22;9206;50.994;4.538;2023-09-08T03:36:53;16.70;99.90
18163;DHT22;9206;50.994;4.538;2023-09-08T03:39:43;16.70;99.90
18163;DHT22;9206;50.994;4.538;2023-09-08T03:42:38;16.70;99.90
18163;DHT22;9206;50.994;4.538;2023-09-08T03:45:29;16.60;99.90
18163;DHT22;9206;50.994;4.538;2023-09-08T03:48:22;16.60;99.90
18163;DHT22;9206;50.994;4.538;2023-09-08T03:51:11;16.60;99.90
18163;DHT22;9206;50.994;4.538;2023-09-08T03:54:04;16.60;99.90
18163;DHT22;9206;50.994;4.538;2023-09-08T03:56:55;16.60;99.90
18163;DHT22;9206;50.994;4.538;2023-09-08T03:59:45;16.60;99.90
18163;DHT22;9206;50.994;4.538;2023-09-08T04:02:34;16.50;99.90
18163;DHT22;9206;50.994;4.538;2023-09-08T04:05:24;16.50;99.90
18163;DHT22;9206;50.994;4.538;2023-09-08T04:08:17;16.50;99.90
18163;DHT22;9206;50.994;4.538;2023-09-08T04:11:06;16.50;99.90
18163;DHT22;9206;50.994;4.538;2023-09-08T04:13:59;16.50;99.90
18163;DHT22;9206;50.994;4.538;2023-09-08T04:16:54;16.40;99.90
18163;DHT22;9206;50.994;4.538;2023-09-08T04:19:45;16.40;99.90
18163;DHT22;9206;50.994;4.538;2023-09-08T04:22:32;16.40;99.90
18163;DHT22;9206;50.994;4.538;2023-09-08T04:25:21;16.40;99.90
18163;DHT22;9206;50.994;4.538;2023-09-08T04:28:15;16.40;99.90
18163;DHT22;9206;50.994;4.538;2023-09-08T04:31:03;16.40;99.90
18163;DHT22;9206;50.994;4.538;2023-09-08T04:33:58;16.40;99.90
18163;DHT22;9206;50.994;4.538;2023-09-08T04:36:57;16.40;99.90
18163;DHT22;9206;50.994;4.538;2023-09-08T04:39:45;16.40;99.90
18163;DHT22;9206;50.994;4.538;2023-09-08T04:42:33;16.30;99.90
18163;DHT22;9206;50.994;4.538;2023-09-08T04:45:24;16.30;99.90
18163;DHT22;9206;50.994;4.538;2023-09-08T04:48:13;16.30;99.90
18163;DHT22;9206;50.994;4.538;2023-09-08T04:51:03;16.30;99.90
18163;DHT22;9206;50.994;4.538;2023-09-08T04:53:52;16.20;99.90
18163;DHT22;9206;50.994;4.538;2023-09-08T04:56:39;16.20;99.90
18163;DHT22;9206;50.994;4.538;2023-09-08T04:59:28;16.20;99.90
18163;DHT22;9206;50.994;4.538;2023-09-08T05:02:22;16.20;99.90
18163;DHT22;9206;50.994;4.538;2023-09-08T05:05:11;16.10;99.90
18163;DHT22;9206;50.994;4.538;2023-09-08T05:08:03;16.10;99.90
18163;DHT22;9206;50.994;4.538;2023-09-08T05:10:51;16.20;99.90
18163;DHT22;9206;50.994;4.538;2023-09-08T05:13:39;16.10;99.90
18163;DHT22;9206;50.994;4.538;2023-09-08T05:16:29;16.20;99.90
18163;DHT22;9206;50.994;4.538;2023-09-08T05:19:31;16.20;99.90
18163;DHT22;9206;50.994;4.538;2023-09-08T05:22:24;16.20;99.90
18163;DHT22;9206;50.994;4.538;2023-09-08T05:25:14;16.20;99.90
18163;DHT22;9206;50.994;4.538;2023-09-08T05:28:08;16.20;99.90
18163;DHT22;9206;50.994;4.538;2023-09-08T05:31:01;16.20;99.90
18163;DHT22;9206;50.994;4.538;2023-09-08T05:33:55;16.30;99.90
18163;DHT22;9206;50.994;4.538;2023-09-08T05:36:48;16.30;99.90
18163;DHT22;9206;50.994;4.538;2023-09-08T05:39:38;16.50;99.90
18163;DHT22;9206;50.994;4.538;2023-09-08T05:42:32;16.80;99.90
18163;DHT22;9206;50.994;4.538;2023-09-08T05:45:26;17.40;99.90
18163;DHT22;9206;50.994;4.538;2023-09-08T05:48:14;18.10;99.90
18163;DHT22;9206;50.994;4.538;2023-09-08T05:51:08;18.70;99.90
18163;DHT22;9206;50.994;4.538;2023-09-08T05:53:57;19.40;99.90
18163;DHT22;9206;50.994;4.538;2023-09-08T05:56:53;20.10;99.90
18163;DHT22;9206;50.994;4.538;2023-09-08T05:59:44;20.80;99.90
18163;DHT22;9206;50.994;4.538;2023-09-08T06:02:38;21.50;99.90
18163;DHT22;9206;50.994;4.538;2023-09-08T06:05:28;22.10;99.90
18163;DHT22;9206;50.994;4.538;2023-09-08T06:08:15;22.80;99.90
18163;DHT22;9206;50.994;4.538;2023-09-08T06:11:03;23.30;99.90
18163;DHT22;9206;50.994;4.538;2023-09-08T06:13:50;23.90;99.90
18163;DHT22;9206;50.994;4.538;2023-09-08T06:16:43;24.40;99.90
18163;DHT22;9206;50.994;4.538;2023-09-08T06:19:32;24.90;99.90
18163;DHT22;9206;50.994;4.538;2023-09-08T06:22:26;25.40;99.90
18163;DHT22;9206;50.994;4.538;2023-09-08T06:25:14;26.00;99.90
18163;DHT22;9206;50.994;4.538;2023-09-08T06:28:03;26.50;99.90
18163;DHT22;9206;50.994;4.538;2023-09-08T06:30:56;26.70;99.90
18163;DHT22;9206;50.994;4.538;2023-09-08T06:33:51;27.10;99.90
18163;DHT22;9206;50.994;4.538;2023-09-08T06:36:39;27.60;99.90
18163;DHT22;9206;50.994;4.538;2023-09-08T06:39:32;27.70;99.90
18163;DHT22;9206;50.994;4.538;2023-09-08T06:42:19;28.20;99.90
18163;DHT22;9206;50.994;4.538;2023-09-08T06:45:08;28.50;99.90
18163;DHT22;9206;50.994;4.538;2023-09-08T06:48:02;29.00;99.90
18163;DHT22;9206;50.994;4.538;2023-09-08T06:50:54;29.50;99.90
18163;DHT22;9206;50.994;4.538;2023-09-08T06:53:43;29.90;99.90
18163;DHT22;9206;50.994;4.538;2023-09-08T06:56:31;29.90;99.90
18163;DHT22;9206;50.994;4.538;2023-09-08T06:59:24;30.20;99.90
18163;DHT22;9206;50.994;4.538;2023-09-08T07:02:12;30.20;99.90
18163;DHT22;9206;50.994;4.538;2023-09-08T07:05:05;30.60;99.90
18163;DHT22;9206;50.994;4.538;2023-09-08T07:08:03;30.80;99.90
18163;DHT22;9206;50.994;4.538;2023-09-08T07:10:53;31.10;99.90
18163;DHT22;9206;50.994;4.538;2023-09-08T07:13:44;31.40;99.90
18163;DHT22;9206;50.994;4.538;2023-09-08T07:16:32;31.70;99.90
18163;DHT22;9206;50.994;4.538;2023-09-08T07:19:26;31.90;99.90
18163;DHT22;9206;50.994;4.538;2023-09-08T07:22:19;32.10;99.90
18163;DHT22;9206;50.994;4.538;2023-09-08T07:25:09;32.60;99.90
18163;DHT22;9206;50.994;4.538;2023-09-08T07:27:57;32.80;99.90
18163;DHT22;9206;50.994;4.538;2023-09-08T07:30:46;33.00;99.90
18163;DHT22;9206;50.994;4.538;2023-09-08T07:33:34;33.40;99.90
18163;DHT22;9206;50.994;4.538;2023-09-08T07:36:23;33.30;99.90
18163;DHT22;9206;50.994;4.538;2023-09-08T07:39:12;32.60;99.90
18163;DHT22;9206;50.994;4.538;2023-09-08T07:42:08;31.50;99.90
18163;DHT22;9206;50.994;4.538;2023-09-08T07:44:58;30.20;99.90
18163;DHT22;9206;50.994;4.538;2023-09-08T07:47:45;29.10;99.90
18163;DHT22;9206;50.994;4.538;2023-09-08T07:50:39;28.30;99.90
18163;DHT22;9206;50.994;4.538;2023-09-08T07:53:26;27.60;99.90
18163;DHT22;9206;50.994;4.538;2023-09-08T07:56:14;27.00;99.90
18163;DHT22;9206;50.994;4.538;2023-09-08T07:59:03;27.40;99.90
18163;DHT22;9206;50.994;4.538;2023-09-08T08:01:53;28.60;99.90
18163;DHT22;9206;50.994;4.538;2023-09-08T08:04:40;30.00;99.90
18163;DHT22;9206;50.994;4.538;2023-09-08T08:07:34;31.40;99.90
18163;DHT22;9206;50.994;4.538;2023-09-08T08:10:27;32.90;99.90
18163;DHT22;9206;50.994;4.538;2023-09-08T08:13:21;34.30;99.90
18163;DHT22;9206;50.994;4.538;2023-09-08T08:16:10;35.40;99.90
18163;DHT22;9206;50.994;4.538;2023-09-08T08:18:58;36.30;99.90
18163;DHT22;9206;50.994;4.538;2023-09-08T08:21:52;36.50;99.90
18163;DHT22;9206;50.994;4.538;2023-09-08T08:24:40;37.40;99.90
18163;DHT22;9206;50.994;4.538;2023-09-08T08:27:30;38.20;99.90
18163;DHT22;9206;50.994;4.538;2023-09-08T08:30:24;38.40;99.90
18163;DHT22;9206;50.994;4.538;2023-09-08T08:33:15;39.00;99.90
18163;DHT22;9206;50.994;4.538;2023-09-08T08:36:06;39.30;99.90
18163;DHT22;9206;50.994;4.538;2023-09-08T08:38:58;40.00;99.90
18163;DHT22;9206;50.994;4.538;2023-09-08T08:41:50;40.00;99.90
18163;DHT22;9206;50.994;4.538;2023-09-08T08:45:02;40.00;99.90
18163;DHT22;9206;50.994;4.538;2023-09-08T08:48:04;40.60;99.90
18163;DHT22;9206;50.994;4.538;2023-09-08T08:50:54;41.10;99.90
18163;DHT22;9206;50.994;4.538;2023-09-08T08:53:44;41.20;99.90
18163;DHT22;9206;50.994;4.538;2023-09-08T08:56:33;41.00;99.90
18163;DHT22;9206;50.994;4.538;2023-09-08T08:59:30;41.00;99.90
18163;DHT22;9206;50.994;4.538;2023-09-08T09:02:22;41.30;99.90
18163;DHT22;9206;50.994;4.538;2023-09-08T09:05:13;41.40;99.90
18163;DHT22;9206;50.994;4.538;2023-09-08T09:08:09;41.70;99.90
18163;DHT22;9206;50.994;4.538;2023-09-08T09:11:09;41.70;99.90
18163;DHT22;9206;50.994;4.538;2023-09-08T09:14:03;42.20;99.90
18163;DHT22;9206;50.994;4.538;2023-09-08T09:17:05;42.50;99.90
18163;DHT22;9206;50.994;4.538;2023-09-08T09:20:17;42.70;99.90
18163;DHT22;9206;50.994;4.538;2023-09-08T09:23:30;42.70;99.90
18163;DHT22;9206;50.994;4.538;2023-09-08T09:26:25;42.00;99.90
18163;DHT22;9206;50.994;4.538;2023-09-08T09:29:25;41.90;99.90
18163;DHT22;9206;50.994;4.538;2023-09-08T09:32:34;42.00;99.90
18163;DHT22;9206;50.994;4.538;2023-09-08T09:35:39;42.50;99.90
18163;DHT22;9206;50.994;4.538;2023-09-08T09:38:39;42.90;99.90
18163;DHT22;9206;50.994;4.538;2023-09-08T09:41:35;43.60;99.90
18163;DHT22;9206;50.994;4.538;2023-09-08T09:44:25;42.90;99.90
18163;DHT22;9206;50.994;4.538;2023-09-08T09:47:35;42.80;99.90
18163;DHT22;9206;50.994;4.538;2023-09-08T09:50:31;43.10;99.90
18163;DHT22;9206;50.994;4.538;2023-09-08T09:53:20;43.30;99.90
18163;DHT22;9206;50.994;4.538;2023-09-08T09:56:16;43.70;99.90
18163;DHT22;9206;50.994;4.538;2023-09-08T09:59:07;44.00;99.90
18163;DHT22;9206;50.994;4.538;2023-09-08T10:02:00;43.90;99.90
18163;DHT22;9206;50.994;4.538;2023-09-08T10:04:49;44.10;99.90
18163;DHT22;9206;50.994;4.538;2023-09-08T10:08:12;44.30;99.90
18163;DHT22;9206;50.994;4.538;2023-09-08T10:11:01;43.90;99.90
18163;DHT22;9206;50.994;4.538;2023-09-08T10:13:58;43.70;99.90
18163;DHT22;9206;50.994;4.538;2023-09-08T10:16:58;44.00;99.90
18163;DHT22;9206;50.994;4.538;2023-09-08T10:19:48;44.00;99.90
18163;DHT22;9206;50.994;4.538;2023-09-08T10:22:41;43.60;99.90
18163;DHT22;9206;50.994;4.538;2023-09-08T10:25:34;43.60;99.90
18163;DHT22;9206;50.994;4.538;2023-09-08T10:28:29;43.50;99.90
18163;DHT22;9206;50.994;4.538;2023-09-08T10:31:19;43.90;99.90
18163;DHT22;9206;50.994;4.538;2023-09-08T10:34:07;44.00;99.90
18163;DHT22;9206;50.994;4.538;2023-09-08T10:36:55;43.80;99.90
18163;DHT22;9206;50.994;4.538;2023-09-08T10:39:44;43.80;99.90
18163;DHT22;9206;50.994;4.538;2023-09-08T10:42:40;43.80;99.90
18163;DHT22;9206;50.994;4.538;2023-09-08T10:45:33;44.30;99.90
18163;DHT22;9206;50.994;4.538;2023-09-08T10:48:23;43.90;99.70
18163;DHT22;9206;50.994;4.538;2023-09-08T10:51:17;44.00;99.90
18163;DHT22;9206;50.994;4.538;2023-09-08T10:54:11;44.30;99.90
18163;DHT22;9206;50.994;4.538;2023-09-08T10:56:59;44.70;99.90
18163;DHT22;9206;50.994;4.538;2023-09-08T10:59:51;44.80;99.90
18163;DHT22;9206;50.994;4.538;2023-09-08T11:02:42;44.80;99.90
18163;DHT22;9206;50.994;4.538;2023-09-08T11:05:43;45.00;99.30
18163;DHT22;9206;50.994;4.538;2023-09-08T11:08:33;44.90;98.60
18163;DHT22;9206;50.994;4.538;2023-09-08T11:11:25;44.50;99.90
18163;DHT22;9206;50.994;4.538;2023-09-08T11:14:13;44.20;98.60
18163;DHT22;9206;50.994;4.538;2023-09-08T11:17:08;44.30;99.90
18163;DHT22;9206;50.994;4.538;2023-09-08T11:20:02;44.30;99.80
18163;DHT22;9206;50.994;4.538;2023-09-08T11:22:59;44.50;99.10
18163;DHT22;9206;50.994;4.538;2023-09-08T11:25:48;43.90;99.20
18163;DHT22;9206;50.994;4.538;2023-09-08T11:28:37;44.10;99.60
18163;DHT22;9206;50.994;4.538;2023-09-08T11:31:25;44.30;99.90
18163;DHT22;9206;50.994;4.538;2023-09-08T11:34:20;44.30;98.20
18163;DHT22;9206;50.994;4.538;2023-09-08T11:37:16;43.00;98.30
18163;DHT22;9206;50.994;4.538;2023-09-08T11:40:09;41.90;99.00
18163;DHT22;9206;50.994;4.538;2023-09-08T11:42:59;42.00;99.20
18163;DHT22;9206;50.994;4.538;2023-09-08T11:45:46;42.30;98.40
18163;DHT22;9206;50.994;4.538;2023-09-08T11:48:35;42.40;97.80
18163;DHT22;9206;50.994;4.538;2023-09-08T11:51:23;42.70;98.30
18163;DHT22;9206;50.994;4.538;2023-09-08T11:54:12;42.60;97.80
18163;DHT22;9206;50.994;4.538;2023-09-08T11:57:03;42.00;97.00
18163;DHT22;9206;50.994;4.538;2023-09-08T11:59:51;41.90;98.60
18163;DHT22;9206;50.994;4.538;2023-09-08T12:02:43;42.30;97.20
18163;DHT22;9206;50.994;4.538;2023-09-08T12:05:32;41.70;97.20
18163;DHT22;9206;50.994;4.538;2023-09-08T12:08:20;41.70;99.90
18163;DHT22;9206;50.994;4.538;2023-09-08T12:11:13;41.90;99.90
18163;DHT22;9206;50.994;4.538;2023-09-08T12:14:06;42.40;98.80
18163;DHT22;9206;50.994;4.538;2023-09-08T12:17:05;42.40;99.50
18163;DHT22;9206;50.994;4.538;2023-09-08T12:19:56;42.70;99.90
18163;DHT22;9206;50.994;4.538;2023-09-08T12:22:50;42.60;97.80
18163;DHT22;9206;50.994;4.538;2023-09-08T12:25:44;42.80;99.90
18163;DHT22;9206;50.994;4.538;2023-09-08T12:28:35;42.60;97.90
18163;DHT22;9206;50.994;4.538;2023-09-08T12:31:25;42.30;98.10
18163;DHT22;9206;50.994;4.538;2023-09-08T12:34:14;42.30;99.90
18163;DHT22;9206;50.994;4.538;2023-09-08T12:37:06;42.30;98.90
18163;DHT22;9206;50.994;4.538;2023-09-08T12:39:57;41.70;98.80
18163;DHT22;9206;50.994;4.538;2023-09-08T12:42:49;40.90;97.90
18163;DHT22;9206;50.994;4.538;2023-09-08T12:45:36;40.50;98.70
18163;DHT22;9206;50.994;4.538;2023-09-08T12:48:25;39.60;99.70
18163;DHT22;9206;50.994;4.538;2023-09-08T12:51:12;39.00;98.80
18163;DHT22;9206;50.994;4.538;2023-09-08T12:54:02;38.70;99.10
18163;DHT22;9206;50.994;4.538;2023-09-08T12:56:49;38.20;99.20
18163;DHT22;9206;50.994;4.538;2023-09-08T12:59:37;37.90;99.50
18163;DHT22;9206;50.994;4.538;2023-09-08T13:02:26;37.80;99.90
18163;DHT22;9206;50.994;4.538;2023-09-08T13:05:16;37.80;99.60
18163;DHT22;9206;50.994;4.538;2023-09-08T13:08:05;37.70;99.50
18163;DHT22;9206;50.994;4.538;2023-09-08T13:10:52;37.70;99.90
18163;DHT22;9206;50.994;4.538;2023-09-08T13:13:45;37.60;99.80
18163;DHT22;9206;50.994;4.538;2023-09-08T13:16:33;37.30;99.90
18163;DHT22;9206;50.994;4.538;2023-09-08T13:19:20;37.40;99.90
18163;DHT22;9206;50.994;4.538;2023-09-08T13:22:10;37.40;99.90
18163;DHT22;9206;50.994;4.538;2023-09-08T13:24:57;37.50;99.90
18163;DHT22;9206;50.994;4.538;2023-09-08T13:27:47;37.60;99.90
18163;DHT22;9206;50.994;4.538;2023-09-08T13:30:35;37.40;99.90
18163;DHT22;9206;50.994;4.538;2023-09-08T13:33:26;37.20;99.90
18163;DHT22;9206;50.994;4.538;2023-09-08T13:36:16;37.10;99.30
18163;DHT22;9206;50.994;4.538;2023-09-08T13:39:08;37.10;99.90
18163;DHT22;9206;50.994;4.538;2023-09-08T13:42:00;37.10;99.90
18163;DHT22;9206;50.994;4.538;2023-09-08T13:44:50;37.00;99.90
18163;DHT22;9206;50.994;4.538;2023-09-08T13:47:41;36.90;99.90
18163;DHT22;9206;50.994;4.538;2023-09-08T13:50:31;36.80;99.90
18163;DHT22;9206;50.994;4.538;2023-09-08T13:53:19;36.60;99.90
18163;DHT22;9206;50.994;4.538;2023-09-08T13:56:10;36.80;99.90
18163;DHT22;9206;50.994;4.538;2023-09-08T13:59:03;36.80;99.90
18163;DHT22;9206;50.994;4.538;2023-09-08T14:01:52;36.70;99.90
18163;DHT22;9206;50.994;4.538;2023-09-08T14:04:39;36.50;99.90
18163;DHT22;9206;50.994;4.538;2023-09-08T14:07:31;36.40;99.90
18163;DHT22;9206;50.994;4.538;2023-09-08T14:10:21;36.20;99.90
18163;DHT22;9206;50.994;4.538;2023-09-08T14:13:13;36.20;99.90
18163;DHT22;9206;50.994;4.538;2023-09-08T14:16:02;36.00;99.90
18163;DHT22;9206;50.994;4.538;2023-09-08T14:18:52;36.00;99.90
18163;DHT22;9206;50.994;4.538;2023-09-08T14:21:41;35.90;99.90
18163;DHT22;9206;50.994;4.538;2023-09-08T14:24:28;35.90;99.90
18163;DHT22;9206;50.994;4.538;2023-09-08T14:27:17;35.70;99.90
18163;DHT22;9206;50.994;4.538;2023-09-08T14:30:07;35.60;99.90
18163;DHT22;9206;50.994;4.538;2023-09-08T14:33:00;35.50;99.90
18163;DHT22;9206;50.994;4.538;2023-09-08T14:35:48;35.50;99.90
18163;DHT22;9206;50.994;4.538;2023-09-08T14:38:43;35.60;99.90
18163;DHT22;9206;50.994;4.538;2023-09-08T14:41:31;35.50;99.90
18163;DHT22;9206;50.994;4.538;2023-09-08T14:44:19;35.30;99.90
18163;DHT22;9206;50.994;4.538;2023-09-08T14:47:15;35.20;99.90
18163;DHT22;9206;50.994;4.538;2023-09-08T14:50:05;35.20;99.90
18163;DHT22;9206;50.994;4.538;2023-09-08T14:52:53;35.20;99.90
18163;DHT22;9206;50.994;4.538;2023-09-08T14:55:41;35.20;99.90
18163;DHT22;9206;50.994;4.538;2023-09-08T14:58:33;35.30;99.90
18163;DHT22;9206;50.994;4.538;2023-09-08T15:01:22;35.30;99.90
18163;DHT22;9206;50.994;4.538;2023-09-08T15:04:11;35.20;99.90
18163;DHT22;9206;50.994;4.538;2023-09-08T15:06:58;35.00;99.90
18163;DHT22;9206;50.994;4.538;2023-09-08T15:09:52;34.90;99.90
18163;DHT22;9206;50.994;4.538;2023-09-08T15:12:40;34.70;99.90
18163;DHT22;9206;50.994;4.538;2023-09-08T15:15:29;34.80;99.90
18163;DHT22;9206;50.994;4.538;2023-09-08T15:18:19;34.60;99.90
18163;DHT22;9206;50.994;4.538;2023-09-08T15:21:11;34.60;99.90
18163;DHT22;9206;50.994;4.538;2023-09-08T15:23:58;34.60;99.90
18163;DHT22;9206;50.994;4.538;2023-09-08T15:26:45;34.40;99.90
18163;DHT22;9206;50.994;4.538;2023-09-08T15:29:33;34.20;99.90
18163;DHT22;9206;50.994;4.538;2023-09-08T15:32:20;34.00;99.90
18163;DHT22;9206;50.994;4.538;2023-09-08T15:35:09;33.90;99.90
18163;DHT22;9206;50.994;4.538;2023-09-08T15:38:02;33.80;99.90
18163;DHT22;9206;50.994;4.538;2023-09-08T15:41:14;33.80;99.90
18163;DHT22;9206;50.994;4.538;2023-09-08T15:44:04;33.90;99.90
18163;DHT22;9206;50.994;4.538;2023-09-08T15:46:54;33.80;99.90
18163;DHT22;9206;50.994;4.538;2023-09-08T15:49:47;33.60;99.90
18163;DHT22;9206;50.994;4.538;2023-09-08T15:52:40;33.50;99.90
18163;DHT22;9206;50.994;4.538;2023-09-08T15:55:32;33.40;99.90
18163;DHT22;9206;50.994;4.538;2023-09-08T15:58:26;33.30;99.90
18163;DHT22;9206;50.994;4.538;2023-09-08T16:01:15;33.20;99.90
18163;DHT22;9206;50.994;4.538;2023-09-08T16:04:05;33.20;99.90
18163;DHT22;9206;50.994;4.538;2023-09-08T16:06:58;33.20;99.90
18163;DHT22;9206;50.994;4.538;2023-09-08T16:09:46;33.00;99.90
18163;DHT22;9206;50.994;4.538;2023-09-08T16:12:35;32.80;99.90
18163;DHT22;9206;50.994;4.538;2023-09-08T16:15:23;32.60;99.90
18163;DHT22;9206;50.994;4.538;2023-09-08T16:18:11;32.50;99.90
18163;DHT22;9206;50.994;4.538;2023-09-08T16:21:01;32.40;99.90
18163;DHT22;9206;50.994;4.538;2023-09-08T16:23:57;32.30;99.90
18163;DHT22;9206;50.994;4.538;2023-09-08T16:26:44;32.10;99.90
18163;DHT22;9206;50.994;4.538;2023-09-08T16:29:39;32.00;99.90
18163;DHT22;9206;50.994;4.538;2023-09-08T16:32:27;31.80;99.90
18163;DHT22;9206;50.994;4.538;2023-09-08T16:35:15;31.70;99.90
18163;DHT22;9206;50.994;4.538;2023-09-08T16:38:08;31.60;99.90
18163;DHT22;9206;50.994;4.538;2023-09-08T16:40:55;31.40;99.90
18163;DHT22;9206;50.994;4.538;2023-09-08T16:43:44;31.30;99.90
18163;DHT22;9206;50.994;4.538;2023-09-08T16:46:33;31.30;99.90
18163;DHT22;9206;50.994;4.538;2023-09-08T16:49:22;31.20;99.90
18163;DHT22;9206;50.994;4.538;2023-09-08T16:52:12;31.10;99.90
18163;DHT22;9206;50.994;4.538;2023-09-08T16:55:01;31.10;99.90
18163;DHT22;9206;50.994;4.538;2023-09-08T16:57:48;30.90;99.90
18163;DHT22;9206;50.994;4.538;2023-09-08T17:00:36;30.90;99.90
18163;DHT22;9206;50.994;4.538;2023-09-08T17:03:26;30.80;99.90
18163;DHT22;9206;50.994;4.538;2023-09-08T17:06:13;30.70;99.90
18163;DHT22;9206;50.994;4.538;2023-09-08T17:09:07;30.60;99.90
18163;DHT22;9206;50.994;4.538;2023-09-08T17:11:55;30.50;99.90
18163;DHT22;9206;50.994;4.538;2023-09-08T17:14:45;30.40;99.90
18163;DHT22;9206;50.994;4.538;2023-09-08T17:17:36;30.30;99.90
18163;DHT22;9206;50.994;4.538;2023-09-08T17:20:25;30.10;99.90
18163;DHT22;9206;50.994;4.538;2023-09-08T17:23:26;30.00;99.90
18163;DHT22;9206;50.994;4.538;2023-09-08T17:26:13;29.90;99.90
18163;DHT22;9206;50.994;4.538;2023-09-08T17:29:02;29.70;99.90
18163;DHT22;9206;50.994;4.538;2023-09-08T17:31:49;29.60;99.90
18163;DHT22;9206;50.994;4.538;2023-09-08T17:34:38;29.50;99.90
18163;DHT22;9206;50.994;4.538;2023-09-08T17:37:27;29.30;99.90
18163;DHT22;9206;50.994;4.538;2023-09-08T17:40:15;29.20;99.90
18163;DHT22;9206;50.994;4.538;2023-09-08T17:43:08;29.00;99.90
18163;DHT22;9206;50.994;4.538;2023-09-08T17:45:56;28.80;99.90
18163;DHT22;9206;50.994;4.538;2023-09-08T17:48:49;28.60;99.90
18163;DHT22;9206;50.994;4.538;2023-09-08T17:51:40;28.50;99.90
18163;DHT22;9206;50.994;4.538;2023-09-08T17:54:32;28.30;99.90
18163;DHT22;9206;50.994;4.538;2023-09-08T17:57:19;28.20;99.90
18163;DHT22;9206;50.994;4.538;2023-09-08T18:00:08;28.00;99.90
18163;DHT22;9206;50.994;4.538;2023-09-08T18:02:55;27.80;99.90
18163;DHT22;9206;50.994;4.538;2023-09-08T18:05:43;27.70;99.90
18163;DHT22;9206;50.994;4.538;2023-09-08T18:08:30;27.50;99.90
18163;DHT22;9206;50.994;4.538;2023-09-08T18:11:21;27.40;99.90
18163;DHT22;9206;50.994;4.538;2023-09-08T18:14:18;27.30;99.90
18163;DHT22;9206;50.994;4.538;2023-09-08T18:17:05;27.10;99.90